Time;durP1;ratioP1;P1;durP2;ratioP2;P2;SDS_P1;SDS_P2;PMS_P1;PMS_P2;Temp;Humidity;BMP_temperature;BMP_pressure;BME280_temperature;BME280_humidity;BME280_pressure;Samples;Min_cycle;Max_cycle;Signal;HPM_P1;HPM_P2
2020/12/04 00:00:59;;;;;;;9.07;6.80;;;4.00;99.90;;;;;;5018325;28;20191;-77
2020/12/04 00:03:24;;;;;;;9.77;7.10;;;4.10;99.90;;;;;;5001709;28;20638;-77
2020/12/04 00:05:50;;;;;;;10.13;6.70;;;4.10;99.90;;;;;;5001630;28;20205;-77
2020/12/04 00:08:15;;;;;;;9.00;7.10;;;4.10;99.90;;;;;;5001552;28;20178;-77
2020/12/04 00:10:41;;;;;;;9.73;6.67;;;4.00;99.90;;;;;;5018051;28;20213;-77
2020/12/04 00:13:07;;;;;;;9.33;6.57;;;4.10;99.90;;;;;;5001623;28;20175;-78
2020/12/04 00:15:32;;;;;;;9.13;6.37;;;4.10;99.90;;;;;;5001277;28;20210;-77
2020/12/04 00:17:58;;;;;;;9.57;6.63;;;4.20;99.90;;;;;;5001246;28;20179;-77
2020/12/04 00:20:23;;;;;;;10.93;7.10;;;4.20;99.90;;;;;;5001159;28;20876;-77
2020/12/04 00:22:49;;;;;;;9.23;6.63;;;4.20;99.90;;;;;;5017754;28;20543;-77
2020/12/04 00:25:15;;;;;;;9.17;6.47;;;4.20;99.90;;;;;;5034153;28;20174;-78
2020/12/04 00:27:40;;;;;;;10.90;6.80;;;4.20;99.90;;;;;;5017532;28;20241;-77
2020/12/04 00:30:06;;;;;;;8.27;6.10;;;4.30;99.90;;;;;;5017550;28;20167;-77
2020/12/04 00:32:31;;;;;;;9.77;6.70;;;4.30;99.90;;;;;;5017499;28;20191;-77
2020/12/04 00:34:57;;;;;;;9.70;6.67;;;4.40;99.90;;;;;;5017363;28;20258;-77
2020/12/04 00:37:22;;;;;;;7.97;5.83;;;4.40;99.90;;;;;;5000614;28;20230;-77
2020/12/04 00:39:48;;;;;;;6.60;5.33;;;4.40;99.90;;;;;;5000943;28;20205;-77
2020/12/04 00:42:13;;;;;;;10.23;6.23;;;4.50;99.90;;;;;;5001114;28;20226;-77
2020/12/04 00:44:39;;;;;;;8.97;5.67;;;4.40;99.90;;;;;;5001068;28;20179;-77
2020/12/04 00:47:05;;;;;;;8.37;5.90;;;4.50;99.90;;;;;;5000834;28;20270;-77
2020/12/04 00:49:30;;;;;;;8.73;5.13;;;4.50;99.90;;;;;;5000860;28;20804;-77
2020/12/04 00:51:56;;;;;;;7.07;5.50;;;4.50;99.90;;;;;;5001378;28;20727;-77
2020/12/04 00:54:21;;;;;;;7.20;5.23;;;4.50;99.90;;;;;;5017250;28;20179;-77
2020/12/04 00:56:47;;;;;;;7.70;5.33;;;4.60;99.90;;;;;;5016671;28;20202;-77
2020/12/04 00:59:12;;;;;;;7.90;5.70;;;4.60;99.90;;;;;;5000470;28;20616;-78
2020/12/04 01:01:38;;;;;;;6.73;5.30;;;4.60;99.90;;;;;;5000551;28;20256;-77
2020/12/04 01:04:03;;;;;;;8.73;5.70;;;4.60;99.90;;;;;;5033658;28;20182;-77
2020/12/04 01:06:29;;;;;;;6.27;5.10;;;4.60;99.90;;;;;;5000626;28;20204;-77
2020/12/04 01:08:54;;;;;;;7.93;5.43;;;4.60;99.90;;;;;;5000894;28;20179;-77
2020/12/04 01:11:20;;;;;;;7.20;5.17;;;4.60;99.90;;;;;;5000785;28;20183;-77
2020/12/04 01:13:46;;;;;;;8.03;5.50;;;4.60;99.90;;;;;;5000802;28;20797;-77
2020/12/04 01:16:12;;;;;;;6.63;5.47;;;4.50;99.90;;;;;;5000204;28;20221;-77
2020/12/04 01:18:38;;;;;;;8.80;5.83;;;4.50;99.90;;;;;;5017519;28;20254;-77
2020/12/04 01:21:05;;;;;;;7.33;5.40;;;4.50;99.90;;;;;;5000912;28;20251;-78
2020/12/04 01:23:30;;;;;;;9.43;5.90;;;4.50;99.90;;;;;;5017981;28;20585;-78
2020/12/04 01:25:56;;;;;;;8.53;5.83;;;4.40;99.90;;;;;;5001871;28;20672;-78
2020/12/04 01:28:21;;;;;;;9.23;5.67;;;4.40;99.90;;;;;;5001441;28;20254;-78
2020/12/04 01:30:47;;;;;;;8.20;5.87;;;4.40;99.90;;;;;;5002064;28;20261;-78
2020/12/04 01:33:12;;;;;;;9.27;5.73;;;4.40;99.90;;;;;;5018465;28;20179;-78
2020/12/04 01:35:38;;;;;;;8.13;5.90;;;4.40;99.90;;;;;;5002849;28;20281;-78
2020/12/04 01:38:04;;;;;;;9.33;6.13;;;4.30;99.90;;;;;;5001481;28;20217;-77
2020/12/04 01:40:32;;;;;;;8.30;5.93;;;4.30;99.90;;;;;;5000781;28;20672;-79
2020/12/04 01:42:57;;;;;;;10.60;6.23;;;4.30;99.90;;;;;;5001209;28;20171;-77
2020/12/04 01:45:23;;;;;;;9.37;6.17;;;4.20;99.90;;;;;;4999558;28;20704;-78
2020/12/04 01:47:49;;;;;;;8.80;6.00;;;4.20;99.90;;;;;;5032402;28;20196;-77
2020/12/04 01:50:15;;;;;;;9.47;6.07;;;4.20;99.90;;;;;;5000016;28;20182;-77
2020/12/04 01:52:41;;;;;;;8.90;6.53;;;4.30;99.90;;;;;;5016415;28;20178;-78
2020/12/04 01:55:07;;;;;;;9.30;6.30;;;4.30;99.90;;;;;;5016119;28;20266;-78
2020/12/04 01:57:33;;;;;;;8.43;5.90;;;4.30;99.90;;;;;;4999269;28;20273;-78
2020/12/04 01:59:59;;;;;;;7.77;5.93;;;4.40;99.90;;;;;;4999517;28;20183;-77
2020/12/04 02:02:25;;;;;;;8.47;6.27;;;4.40;99.90;;;;;;4999631;28;20175;-78
2020/12/04 02:04:51;;;;;;;7.37;5.73;;;4.40;99.90;;;;;;4999597;28;20597;-78
2020/12/04 02:07:33;;;;;;;8.53;6.20;;;4.50;99.90;;;;;;4998930;28;20218;-77
2020/12/04 02:10:02;;;;;;;7.43;5.50;;;4.50;99.90;;;;;;5032381;28;20167;-77
2020/12/04 02:12:28;;;;;;;8.67;6.40;;;4.60;99.90;;;;;;4999824;28;20177;-77
2020/12/04 02:14:53;;;;;;;9.27;5.83;;;4.60;99.90;;;;;;4999243;28;20664;-77
2020/12/04 02:17:32;;;;;;;8.47;5.90;;;4.60;99.90;;;;;;4998917;28;20218;-77
2020/12/04 02:19:58;;;;;;;8.70;6.10;;;4.60;99.90;;;;;;4999503;28;20691;-77
2020/12/04 02:22:24;;;;;;;8.13;5.70;;;4.60;99.90;;;;;;4999429;28;20382;-78
2020/12/04 02:24:53;;;;;;;6.50;5.20;;;4.60;99.90;;;;;;4999502;28;20174;-77
2020/12/04 02:27:19;;;;;;;8.17;5.97;;;4.60;99.90;;;;;;4999337;28;20286;-77
2020/12/04 02:29:45;;;;;;;8.00;5.63;;;4.60;99.90;;;;;;4998869;28;20219;-77
2020/12/04 02:32:11;;;;;;;8.67;5.37;;;4.70;99.90;;;;;;5015543;28;20175;-77
2020/12/04 02:34:37;;;;;;;9.60;5.83;;;4.70;99.90;;;;;;4998942;28;20225;-77
2020/12/04 02:37:04;;;;;;;7.83;5.80;;;4.70;99.90;;;;;;5015433;28;20230;-77
2020/12/04 02:39:29;;;;;;;8.10;5.87;;;4.60;99.90;;;;;;4999117;28;20179;-78
2020/12/04 02:41:55;;;;;;;7.20;5.60;;;4.70;99.90;;;;;;4999033;28;20210;-78
2020/12/04 02:44:20;;;;;;;7.63;5.53;;;4.70;99.90;;;;;;4999033;28;20232;-78
2020/12/04 02:46:47;;;;;;;8.63;5.87;;;4.60;99.90;;;;;;4998642;28;20190;-77
2020/12/04 02:49:12;;;;;;;8.47;5.60;;;4.70;99.90;;;;;;4998970;28;20171;-77
2020/12/04 02:51:43;;;;;;;7.33;5.60;;;4.70;99.90;;;;;;4999004;28;20182;-77
2020/12/04 02:54:08;;;;;;;7.73;5.70;;;4.70;99.90;;;;;;4999411;28;20661;-77
2020/12/04 02:56:34;;;;;;;8.30;5.40;;;4.70;99.90;;;;;;5015031;28;20202;-77
2020/12/04 02:58:59;;;;;;;8.87;6.03;;;4.60;99.90;;;;;;4999126;28;20214;-77
2020/12/04 03:01:25;;;;;;;7.17;5.13;;;4.60;99.90;;;;;;5015405;28;20261;-78
2020/12/04 03:03:50;;;;;;;7.57;5.47;;;4.60;99.90;;;;;;4998690;28;20205;-77
2020/12/04 03:06:16;;;;;;;7.83;5.73;;;4.60;99.90;;;;;;5014804;28;20245;-77
2020/12/04 03:08:41;;;;;;;7.77;5.90;;;4.50;99.90;;;;;;5015311;28;20297;-77
2020/12/04 03:11:07;;;;;;;8.77;6.07;;;4.50;99.90;;;;;;5014795;28;20274;-77
2020/12/04 03:13:33;;;;;;;12.30;6.60;;;4.50;99.90;;;;;;4998819;28;20198;-77
2020/12/04 03:15:58;;;;;;;9.97;7.10;;;4.40;99.90;;;;;;5014828;28;20718;-77
2020/12/04 03:18:24;;;;;;;9.67;6.67;;;4.40;99.90;;;;;;4998526;28;20230;-77
2020/12/04 03:20:49;;;;;;;9.60;6.20;;;4.40;99.90;;;;;;4999101;28;20206;-78
2020/12/04 03:23:15;;;;;;;9.27;6.77;;;4.40;99.90;;;;;;5035530;28;20175;-77
2020/12/04 03:25:41;;;;;;;8.97;6.70;;;4.40;99.90;;;;;;5002571;28;20239;-78
2020/12/04 03:28:06;;;;;;;9.63;6.17;;;4.40;99.90;;;;;;5002152;28;20554;-77
2020/12/04 03:30:32;;;;;;;9.93;6.37;;;4.40;99.90;;;;;;5018525;28;20714;-77
2020/12/04 03:32:57;;;;;;;10.53;7.03;;;4.40;99.90;;;;;;5018581;28;20183;-77
2020/12/04 03:35:23;;;;;;;9.97;7.20;;;4.40;99.90;;;;;;5002259;28;20206;-78
2020/12/04 03:37:48;;;;;;;10.30;7.43;;;4.40;99.90;;;;;;5002063;28;20651;-78
2020/12/04 03:40:14;;;;;;;10.53;6.57;;;4.30;99.90;;;;;;5001862;28;20205;-78
2020/12/04 03:42:39;;;;;;;9.67;6.83;;;4.30;99.90;;;;;;5001690;28;20656;-77
2020/12/04 03:45:05;;;;;;;10.97;7.30;;;4.30;99.90;;;;;;5001704;28;20646;-78
2020/12/04 03:47:30;;;;;;;12.37;7.63;;;4.30;99.90;;;;;;5001455;28;20265;-77
2020/12/04 03:49:56;;;;;;;9.53;6.60;;;4.30;99.90;;;;;;5018029;28;20633;-78
2020/12/04 03:52:21;;;;;;;11.80;7.20;;;4.30;99.90;;;;;;5001750;28;20179;-78
2020/12/04 03:54:48;;;;;;;11.60;7.87;;;4.30;99.90;;;;;;5033757;28;20196;-78
2020/12/04 03:57:13;;;;;;;8.93;7.10;;;4.30;99.90;;;;;;5033783;28;20588;-78
2020/12/04 03:59:39;;;;;;;11.23;8.10;;;4.30;99.90;;;;;;5001495;28;20753;-78
2020/12/04 04:02:04;;;;;;;11.97;7.83;;;4.30;99.90;;;;;;5001757;28;20359;-78
2020/12/04 04:04:30;;;;;;;10.37;7.23;;;4.30;99.90;;;;;;5001552;28;20207;-78
2020/12/04 04:06:55;;;;;;;9.90;7.00;;;4.30;99.90;;;;;;5017694;28;20569;-78
2020/12/04 04:09:21;;;;;;;7.63;5.00;;;4.30;99.90;;;;;;5017622;28;20557;-78
2020/12/04 04:11:46;;;;;;;9.33;6.40;;;4.40;99.90;;;;;;5001496;28;20214;-77
2020/12/04 04:14:12;;;;;;;10.37;7.13;;;4.40;99.90;;;;;;5001394;28;20175;-77
2020/12/04 04:16:37;;;;;;;9.97;7.10;;;4.40;99.90;;;;;;5033362;23;20233;-79
2020/12/04 04:19:03;;;;;;;8.60;6.07;;;4.40;99.90;;;;;;5040176;28;20177;-79
2020/12/04 04:21:28;;;;;;;9.30;6.43;;;4.50;99.90;;;;;;5023489;28;20207;-80
2020/12/04 04:23:54;;;;;;;8.33;6.03;;;4.50;99.90;;;;;;5023590;28;20554;-79
2020/12/04 04:26:19;;;;;;;8.67;6.37;;;4.60;99.90;;;;;;5019272;28;20552;-79
2020/12/04 04:28:45;;;;;;;8.60;5.53;;;4.60;99.90;;;;;;5020408;28;20607;-79
2020/12/04 04:31:12;;;;;;;7.93;5.87;;;4.60;99.90;;;;;;5036617;28;20587;-79
2020/12/04 04:33:38;;;;;;;6.67;5.30;;;4.60;99.90;;;;;;5036443;28;20202;-79
2020/12/04 04:36:03;;;;;;;8.03;4.83;;;4.60;99.90;;;;;;5036152;28;20233;-78
2020/12/04 04:38:29;;;;;;;7.70;5.30;;;4.70;99.90;;;;;;5019867;28;20229;-79
2020/12/04 04:40:57;;;;;;;7.17;5.30;;;4.70;99.90;;;;;;5036271;28;20194;-79
2020/12/04 04:43:22;;;;;;;7.33;5.37;;;4.70;99.90;;;;;;5036487;28;20174;-79
2020/12/04 04:45:48;;;;;;;6.20;4.63;;;4.70;99.90;;;;;;5036345;28;20196;-79
2020/12/04 04:48:28;;;;;;;6.87;5.13;;;4.80;99.90;;;;;;5036051;28;20217;-79
2020/12/04 04:50:57;;;;;;;6.63;4.73;;;4.80;99.90;;;;;;5019725;28;20205;-79
2020/12/04 04:53:23;;;;;;;7.10;4.87;;;4.90;99.90;;;;;;5036079;28;20598;-79
2020/12/04 04:55:49;;;;;;;7.70;4.73;;;4.90;99.90;;;;;;5036096;28;20178;-79
2020/12/04 04:58:14;;;;;;;6.23;4.60;;;4.90;99.90;;;;;;5035848;28;20273;-79
2020/12/04 05:00:40;;;;;;;6.97;4.03;;;5.00;99.90;;;;;;5035842;28;20207;-79
2020/12/04 05:03:09;;;;;;;5.87;4.00;;;5.00;99.90;;;;;;5019480;28;20178;-79
2020/12/04 05:05:49;;;;;;;5.23;3.87;;;5.10;99.90;;;;;;5036017;28;20189;-79
2020/12/04 05:08:16;;;;;;;5.30;3.97;;;5.10;99.90;;;;;;5035888;28;20182;-79
2020/12/04 05:10:42;;;;;;;5.33;4.37;;;5.10;99.90;;;;;;5035775;28;20239;-79
2020/12/04 05:13:08;;;;;;;5.43;4.00;;;5.00;99.90;;;;;;5035791;28;20299;-79
2020/12/04 05:15:33;;;;;;;6.83;4.60;;;5.00;99.90;;;;;;5035734;28;20269;-79
2020/12/04 05:18:09;;;;;;;4.57;3.70;;;5.00;99.90;;;;;;5035423;28;20643;-79
2020/12/04 05:20:36;;;;;;;5.97;3.90;;;5.00;99.90;;;;;;5053396;28;20197;-79
2020/12/04 05:23:01;;;;;;;3.70;3.00;;;5.00;99.90;;;;;;5035833;28;20531;-79
2020/12/04 05:25:32;;;;;;;4.07;3.50;;;5.00;99.90;;;;;;5035619;28;20202;-79
2020/12/04 05:28:27;;;;;;;3.90;3.10;;;5.10;99.90;;;;;;5035224;28;20203;-79
2020/12/04 05:31:09;;;;;;;3.90;3.17;;;5.00;99.90;;;;;;5021337;28;20195;-79
2020/12/04 05:33:34;;;;;;;5.07;3.43;;;5.00;99.90;;;;;;5035400;28;20245;-79
2020/12/04 05:36:00;;;;;;;3.33;2.80;;;5.10;99.90;;;;;;5035121;28;20643;-79
2020/12/04 05:38:26;;;;;;;3.43;2.67;;;5.10;99.90;;;;;;5036033;28;20175;-79
2020/12/04 05:41:02;;;;;;;3.73;2.80;;;5.20;99.90;;;;;;5035976;28;20563;-79
2020/12/04 05:43:29;;;;;;;2.90;2.53;;;5.20;99.90;;;;;;5035135;28;20198;-79
2020/12/04 05:46:17;;;;;;;3.00;2.57;;;5.20;99.90;;;;;;5035132;28;20270;-79
2020/12/04 05:48:44;;;;;;;3.03;2.37;;;5.20;99.90;;;;;;5035173;28;20171;-79
2020/12/04 05:51:11;;;;;;;3.23;2.60;;;5.20;99.90;;;;;;5035196;28;20193;-79
2020/12/04 05:53:36;;;;;;;3.63;2.93;;;5.30;99.90;;;;;;5035026;28;20181;-79
2020/12/04 05:56:02;;;;;;;2.57;2.37;;;5.30;99.90;;;;;;5034779;28;20219;-79
2020/12/04 05:58:27;;;;;;;3.47;2.80;;;5.30;99.90;;;;;;5035117;28;20185;-79
2020/12/04 06:00:53;;;;;;;3.30;2.47;;;5.30;99.90;;;;;;5034746;28;20209;-80
2020/12/04 06:03:18;;;;;;;4.27;2.80;;;5.40;99.90;;;;;;5035061;28;20178;-79
2020/12/04 06:05:44;;;;;;;3.00;2.67;;;5.40;99.90;;;;;;5018214;28;20175;-79
2020/12/04 06:08:09;;;;;;;3.90;2.83;;;5.40;99.90;;;;;;5034569;28;20192;-79
2020/12/04 06:10:35;;;;;;;4.33;2.80;;;5.30;99.90;;;;;;5034664;28;20276;-79
2020/12/04 06:13:01;;;;;;;3.67;2.97;;;5.30;99.90;;;;;;5022088;28;20175;-80
2020/12/04 06:15:31;;;;;;;3.57;2.80;;;5.30;99.90;;;;;;5020847;28;20190;-76
2020/12/04 06:18:09;;;;;;;5.10;2.50;;;5.30;99.90;;;;;;5017659;28;20218;-79
2020/12/04 06:20:45;;;;;;;3.40;2.87;;;5.40;99.90;;;;;;4999939;28;20216;-79
2020/12/04 06:23:21;;;;;;;3.10;2.60;;;5.40;99.90;;;;;;5015114;28;20557;-79
2020/12/04 06:25:50;;;;;;;3.73;2.57;;;5.30;99.90;;;;;;5015463;28;20604;-79
2020/12/04 06:28:39;;;;;;;3.80;2.70;;;5.40;99.90;;;;;;5031418;28;20217;-80
2020/12/04 06:31:11;;;;;;;3.77;3.13;;;5.40;99.90;;;;;;5053018;28;20175;-81
2020/12/04 06:33:37;;;;;;;3.10;2.53;;;5.40;99.90;;;;;;5034998;28;20190;-79
2020/12/04 06:36:04;;;;;;;3.27;2.80;;;5.40;99.90;;;;;;5034435;28;20198;-76
2020/12/04 06:38:33;;;;;;;3.50;2.73;;;5.50;99.90;;;;;;5017978;28;20208;-78
2020/12/04 06:41:19;;;;;;;3.47;3.03;;;5.60;99.90;;;;;;5039775;28;20680;-80
2020/12/04 06:43:46;;;;;;;3.23;2.90;;;5.60;99.90;;;;;;5035844;28;20158;-80
2020/12/04 06:46:30;;;;;;;3.30;2.53;;;5.70;99.90;;;;;;5034612;28;20187;-79
2020/12/04 06:49:22;;;;;;;3.37;2.63;;;5.80;99.90;;;;;;5051327;28;20768;-80
2020/12/04 06:51:59;;;;;;;3.80;3.10;;;5.80;99.90;;;;;;5052475;28;20242;-79
2020/12/04 06:54:25;;;;;;;3.00;2.70;;;5.80;99.90;;;;;;5034951;28;20184;-81
2020/12/04 06:56:51;;;;;;;3.53;3.00;;;5.80;99.90;;;;;;5033540;28;20666;-79
2020/12/04 06:59:31;;;;;;;4.33;3.00;;;5.80;99.90;;;;;;5034651;28;20180;-80
2020/12/04 07:02:01;;;;;;;4.23;3.30;;;5.80;99.90;;;;;;5029050;28;20539;-79
2020/12/04 07:04:28;;;;;;;3.27;2.97;;;5.80;99.90;;;;;;5018592;28;20183;-79
2020/12/04 07:07:04;;;;;;;5.23;3.30;;;5.90;99.90;;;;;;5034643;28;20190;-79
2020/12/04 07:09:29;;;;;;;3.03;2.73;;;5.90;99.90;;;;;;5034830;28;20176;-78
2020/12/04 07:11:56;;;;;;;3.57;2.80;;;5.90;99.90;;;;;;5035002;28;20691;-78
2020/12/04 07:14:22;;;;;;;3.50;2.70;;;5.90;99.90;;;;;;5031890;28;20210;-78
2020/12/04 07:16:48;;;;;;;3.40;3.10;;;5.90;99.90;;;;;;5015469;28;20255;-78
2020/12/04 07:19:13;;;;;;;4.13;3.20;;;6.00;99.90;;;;;;5026530;28;20179;-78
2020/12/04 07:21:39;;;;;;;3.57;2.90;;;6.00;99.90;;;;;;5006914;28;20191;-78
2020/12/04 07:24:08;;;;;;;3.67;3.17;;;6.00;99.90;;;;;;5019854;28;20190;-81
2020/12/04 07:26:33;;;;;;;3.70;2.63;;;6.00;99.90;;;;;;5026729;28;20282;-78
2020/12/04 07:29:04;;;;;;;3.97;3.27;;;6.00;99.90;;;;;;5017162;28;20170;-81
2020/12/04 07:31:29;;;;;;;4.47;3.23;;;6.10;99.90;;;;;;5015265;28;20183;-79
2020/12/04 07:34:00;;;;;;;4.57;3.07;;;6.10;99.90;;;;;;5001449;28;20191;-78
2020/12/04 07:36:25;;;;;;;3.60;2.90;;;6.10;99.90;;;;;;5034462;28;20190;-78
2020/12/04 07:38:53;;;;;;;3.90;2.97;;;6.10;99.90;;;;;;5001841;28;20259;-78
2020/12/04 07:41:22;;;;;;;4.63;3.37;;;6.10;99.90;;;;;;5012795;28;20203;-79
2020/12/04 07:43:48;;;;;;;4.53;3.43;;;6.20;99.90;;;;;;5020934;28;20177;-78
2020/12/04 07:46:18;;;;;;;3.77;2.90;;;6.20;99.90;;;;;;5009910;28;20190;-79
2020/12/04 07:48:58;;;;;;;4.07;3.10;;;6.20;99.90;;;;;;5035086;28;20218;-78
2020/12/04 07:51:24;;;;;;;4.33;3.03;;;6.20;99.90;;;;;;5015186;28;20622;-78
2020/12/04 07:53:51;;;;;;;3.70;3.10;;;6.20;99.90;;;;;;5015501;28;20182;-77
2020/12/04 07:56:17;;;;;;;4.37;3.20;;;6.20;99.90;;;;;;5014484;28;20744;-76
2020/12/04 07:58:42;;;;;;;4.77;3.33;;;6.20;99.90;;;;;;5036497;28;20182;-80
2020/12/04 08:01:08;;;;;;;3.07;2.50;;;6.30;99.90;;;;;;5036157;28;20278;-80
2020/12/04 08:07:16;;;;;;;3.43;2.83;;;6.30;99.90;;;;;;5042708;28;20571;-81
2020/12/04 08:12:59;;;;;;;3.30;2.73;;;6.20;99.90;;;;;;5041027;28;20178;-82
2020/12/04 08:15:25;;;;;;;4.50;2.70;;;6.20;99.90;;;;;;5024405;28;20181;-81
2020/12/04 08:18:04;;;;;;;4.70;3.00;;;6.30;99.90;;;;;;5022189;28;20265;-80
2020/12/04 08:20:30;;;;;;;5.20;2.83;;;6.30;99.90;;;;;;5025705;28;20281;-81
2020/12/04 08:23:03;;;;;;;3.47;2.60;;;6.30;99.90;;;;;;5004917;28;20210;-81
2020/12/04 08:25:30;;;;;;;3.33;3.00;;;6.20;99.90;;;;;;4996209;28;20176;-81
2020/12/04 08:27:55;;;;;;;4.17;3.03;;;6.30;99.90;;;;;;5010549;28;20229;-81
2020/12/04 08:30:26;;;;;;;3.67;2.80;;;6.30;99.90;;;;;;5008643;28;20175;-81
2020/12/04 08:32:56;;;;;;;3.50;2.73;;;6.30;99.90;;;;;;5007327;28;20179;-81
2020/12/04 08:35:30;;;;;;;3.30;2.60;;;6.40;99.90;;;;;;5020462;28;20179;-79
2020/12/04 08:38:07;;;;;;;4.17;2.83;;;6.40;99.90;;;;;;5013419;23;20631;-80
2020/12/04 08:40:34;;;;;;;4.93;2.87;;;6.40;99.90;;;;;;5072027;28;20201;-85
2020/12/04 08:43:14;;;;;;;3.40;2.77;;;6.40;99.90;;;;;;5062887;28;20190;-84
2020/12/04 08:45:49;;;;;;;3.37;2.63;;;6.40;99.90;;;;;;5079759;28;20159;-85
2020/12/04 08:48:18;;;;;;;3.30;2.87;;;6.40;99.90;;;;;;5080454;28;20161;-84
2020/12/04 08:50:47;;;;;;;3.77;2.70;;;6.50;99.90;;;;;;5076136;28;20195;-84
2020/12/04 08:53:16;;;;;;;2.37;2.17;;;6.50;99.90;;;;;;5027625;28;20166;-85
2020/12/04 08:55:48;;;;;;;4.30;2.60;;;6.50;99.90;;;;;;5059731;28;20192;-84
2020/12/04 08:58:36;;;;;;;3.13;2.70;;;6.50;99.90;;;;;;5042788;28;20204;-86
2020/12/04 09:01:06;;;;;;;3.67;2.90;;;6.40;99.90;;;;;;5043285;28;20250;-85
2020/12/04 09:03:33;;;;;;;4.17;2.97;;;6.50;99.90;;;;;;5023698;28;20175;-82
2020/12/04 09:06:00;;;;;;;4.40;3.10;;;6.60;99.90;;;;;;5021859;28;20185;-82
2020/12/04 09:08:28;;;;;;;4.63;3.43;;;6.50;99.90;;;;;;5021413;28;20178;-81
2020/12/04 09:10:55;;;;;;;3.77;2.90;;;6.60;99.90;;;;;;5023133;28;20207;-82
2020/12/04 09:13:22;;;;;;;4.23;2.97;;;6.60;99.90;;;;;;5021374;28;20183;-81
2020/12/04 09:15:49;;;;;;;4.00;2.67;;;6.60;99.90;;;;;;5019208;28;20180;-82
2020/12/04 09:18:16;;;;;;;3.80;2.73;;;6.70;99.90;;;;;;5021450;28;20172;-82
2020/12/04 09:20:44;;;;;;;4.00;2.43;;;6.60;99.90;;;;;;5021628;28;20205;-82
2020/12/04 09:23:13;;;;;;;2.67;2.43;;;6.70;99.90;;;;;;5026052;28;20246;-82
2020/12/04 09:25:41;;;;;;;3.40;2.57;;;6.70;99.90;;;;;;5026282;28;20198;-85
2020/12/04 09:28:10;;;;;;;3.90;2.67;;;6.80;99.90;;;;;;5026316;28;20254;-83
2020/12/04 09:30:39;;;;;;;3.23;2.50;;;6.90;99.90;;;;;;5025467;28;20191;-81
2020/12/04 09:33:09;;;;;;;5.77;3.20;;;6.90;99.90;;;;;;5026910;28;20166;-84
2020/12/04 09:35:37;;;;;;;4.53;3.33;;;7.00;99.90;;;;;;5026392;28;20166;-83
2020/12/04 09:38:05;;;;;;;4.17;2.70;;;7.00;99.90;;;;;;5026582;28;20241;-85
2020/12/04 09:40:35;;;;;;;3.37;2.50;;;7.10;99.90;;;;;;5042681;28;20202;-84
2020/12/04 09:43:02;;;;;;;3.33;2.90;;;7.10;99.90;;;;;;5025183;28;20179;-82
2020/12/04 09:45:30;;;;;;;3.07;2.33;;;7.20;99.90;;;;;;5022685;28;20198;-82
2020/12/04 09:48:02;;;;;;;4.40;2.77;;;7.10;99.90;;;;;;5039365;28;20171;-83
2020/12/04 09:50:30;;;;;;;2.97;2.37;;;7.30;99.90;;;;;;5023256;28;20234;-82
2020/12/04 09:52:58;;;;;;;2.90;2.60;;;7.20;99.90;;;;;;5037617;28;20183;-82
2020/12/04 09:55:26;;;;;;;2.97;2.17;;;7.20;99.90;;;;;;5018259;28;20229;-83
2020/12/04 09:57:54;;;;;;;3.00;2.70;;;7.20;99.90;;;;;;5019005;28;20184;-82
2020/12/04 10:00:21;;;;;;;2.50;2.10;;;7.20;99.90;;;;;;5036352;28;20241;-82
2020/12/04 10:02:49;;;;;;;3.23;2.67;;;7.30;99.90;;;;;;5018316;28;20246;-82
2020/12/04 10:05:16;;;;;;;3.00;2.23;;;7.30;99.90;;;;;;5033658;28;20207;-82
2020/12/04 10:07:43;;;;;;;3.23;2.53;;;7.30;99.90;;;;;;5019643;28;20184;-82
2020/12/04 10:10:14;;;;;;;3.80;2.63;;;7.30;99.90;;;;;;5019664;28;20189;-83
2020/12/04 10:12:41;;;;;;;5.93;2.63;;;7.40;99.90;;;;;;5036423;28;20239;-82
2020/12/04 10:15:09;;;;;;;4.00;2.90;;;7.50;99.90;;;;;;5017249;28;20244;-82
2020/12/04 10:17:40;;;;;;;3.23;2.87;;;7.50;99.90;;;;;;5013542;28;20179;-82
2020/12/04 10:20:09;;;;;;;2.87;2.50;;;7.60;99.90;;;;;;5027611;28;20199;-81
2020/12/04 10:22:42;;;;;;;4.40;2.90;;;7.60;99.90;;;;;;5007267;28;20203;-82
2020/12/04 10:25:11;;;;;;;4.07;2.60;;;7.70;99.90;;;;;;5026265;28;20155;-81
2020/12/04 10:27:53;;;;;;;3.27;2.67;;;7.70;99.90;;;;;;5022640;28;20184;-85
2020/12/04 10:30:21;;;;;;;3.23;2.37;;;7.70;99.90;;;;;;5025200;28;20202;-82
2020/12/04 10:32:54;;;;;;;3.03;2.60;;;7.60;99.90;;;;;;5019774;28;20179;-83
2020/12/04 10:35:21;;;;;;;3.50;2.53;;;7.80;99.90;;;;;;5049099;28;20186;-81
2020/12/04 10:37:50;;;;;;;2.93;2.63;;;7.80;99.90;;;;;;5020551;28;20185;-83
2020/12/04 10:40:19;;;;;;;3.87;2.70;;;7.80;99.90;;;;;;5023004;28;20209;-82
2020/12/04 10:42:51;;;;;;;2.70;2.03;;;7.90;99.90;;;;;;5019354;28;20177;-81
2020/12/04 10:45:20;;;;;;;2.90;2.57;;;7.90;99.90;;;;;;5025707;28;20167;-85
2020/12/04 10:47:49;;;;;;;3.30;2.57;;;7.90;99.90;;;;;;5025573;28;20161;-83
2020/12/04 10:50:19;;;;;;;2.93;2.30;;;7.90;99.90;;;;;;5023211;28;20208;-83
2020/12/04 10:52:49;;;;;;;2.60;2.27;;;8.10;99.90;;;;;;5025782;28;20172;-85
2020/12/04 10:55:20;;;;;;;3.57;2.80;;;8.10;99.90;;;;;;5025951;28;20163;-85
2020/12/04 10:57:50;;;;;;;4.20;2.57;;;7.90;99.90;;;;;;5026182;28;20164;-85
2020/12/04 11:00:19;;;;;;;3.17;2.67;;;8.00;99.90;;;;;;5025637;28;20206;-85
2020/12/04 11:02:57;;;;;;;4.63;2.53;;;8.10;99.90;;;;;;5024881;28;20230;-83
2020/12/04 11:05:38;;;;;;;4.10;2.53;;;8.10;99.90;;;;;;5026804;28;20162;-85
2020/12/04 11:08:09;;;;;;;3.60;2.43;;;8.10;99.90;;;;;;5028222;28;20169;-82
2020/12/04 11:10:40;;;;;;;2.90;2.60;;;8.20;99.90;;;;;;5025938;28;20202;-85
2020/12/04 11:13:10;;;;;;;2.67;2.17;;;8.20;99.90;;;;;;5025900;28;20194;-85
2020/12/04 11:15:39;;;;;;;2.50;2.20;;;8.30;99.90;;;;;;5041439;28;20167;-85
2020/12/04 11:18:10;;;;;;;2.23;2.00;;;8.40;99.90;;;;;;5025118;28;20166;-82
2020/12/04 11:20:39;;;;;;;3.97;2.50;;;8.40;99.90;;;;;;5040510;28;20209;-85
2020/12/04 11:23:08;;;;;;;2.30;1.67;;;8.40;99.90;;;;;;5039235;28;20177;-85
2020/12/04 11:25:39;;;;;;;4.73;1.83;;;8.40;99.90;;;;;;5078000;28;20197;-84
2020/12/04 11:28:12;;;;;;;2.00;1.43;;;8.40;99.90;;;;;;5078042;28;20155;-85
2020/12/04 11:30:55;;;;;;;3.70;2.30;;;8.40;99.90;;;;;;5062020;28;20252;-86
2020/12/04 11:33:26;;;;;;;4.03;2.10;;;8.40;99.90;;;;;;5063408;28;20204;-86
2020/12/04 11:36:00;;;;;;;3.07;2.10;;;8.40;99.90;;;;;;5077646;28;20146;-86
2020/12/04 11:38:38;;;;;;;2.80;1.97;;;8.50;99.90;;;;;;5061710;28;20208;-85
2020/12/04 11:41:17;;;;;;;3.40;2.03;;;8.60;99.90;;;;;;5060959;28;20230;-87
2020/12/04 11:43:44;;;;;;;2.13;1.83;;;8.70;99.90;;;;;;5107071;22;20229;-80
2020/12/04 11:46:09;;;;;;;2.23;1.77;;;8.90;99.90;;;;;;5016807;28;20217;-78
2020/12/04 11:48:35;;;;;;;3.60;1.60;;;9.00;99.90;;;;;;5022395;28;20178;-79
2020/12/04 11:51:01;;;;;;;2.03;1.70;;;9.10;99.90;;;;;;5013524;28;20176;-80
2020/12/04 11:53:26;;;;;;;2.10;1.60;;;9.00;99.90;;;;;;5015961;28;20207;-79
2020/12/04 11:55:52;;;;;;;1.97;1.70;;;8.90;99.90;;;;;;5020965;28;20186;-81
2020/12/04 11:58:18;;;;;;;2.20;1.60;;;8.80;99.90;;;;;;5021003;28;20192;-81
2020/12/04 12:00:44;;;;;;;2.27;1.80;;;8.70;99.90;;;;;;5018271;28;20242;-79
2020/12/04 12:03:09;;;;;;;1.90;1.60;;;8.80;99.90;;;;;;5019571;28;20176;-80
2020/12/04 12:05:37;;;;;;;2.00;1.60;;;8.70;99.90;;;;;;5002537;28;20176;-80
2020/12/04 12:08:03;;;;;;;2.83;1.90;;;8.80;99.90;;;;;;5004496;28;20678;-81
2020/12/04 12:10:29;;;;;;;3.63;1.90;;;8.90;99.90;;;;;;5019782;28;20180;-81
2020/12/04 12:12:55;;;;;;;4.67;1.93;;;8.80;99.90;;;;;;5016628;28;20186;-81
2020/12/04 12:15:22;;;;;;;2.17;1.97;;;8.80;99.90;;;;;;5003784;28;20559;-81
2020/12/04 12:17:49;;;;;;;3.10;1.97;;;8.80;99.90;;;;;;5017789;28;20206;-78
2020/12/04 12:20:15;;;;;;;2.97;1.67;;;8.80;99.90;;;;;;5018796;28;20179;-81
2020/12/04 12:22:41;;;;;;;1.83;1.33;;;8.90;99.90;;;;;;5001025;28;20250;-76
2020/12/04 12:25:06;;;;;;;1.63;1.53;;;8.90;99.90;;;;;;5031138;28;20223;-79
2020/12/04 12:27:38;;;;;;;1.60;1.40;;;8.70;99.90;;;;;;4998729;28;20226;-82
2020/12/04 12:35:41;;;;;;;2.03;1.50;;;8.80;99.90;;;;;;5223138;22;20231;-83
2020/12/04 12:38:10;;;;;;;2.63;1.57;;;8.80;99.90;;;;;;5022947;28;20187;-84
2020/12/04 12:40:39;;;;;;;2.77;1.80;;;8.80;99.90;;;;;;5023731;28;20194;-86
2020/12/04 12:43:08;;;;;;;2.53;1.40;;;8.70;99.90;;;;;;5023644;28;20179;-85
2020/12/04 12:45:44;;;;;;;2.10;1.90;;;8.70;99.90;;;;;;5018879;23;20227;-82
2020/12/04 12:48:10;;;;;;;3.37;1.53;;;8.80;99.90;;;;;;4997566;28;20181;-79
2020/12/04 12:50:36;;;;;;;2.47;1.47;;;8.70;99.90;;;;;;4994586;28;20188;-79
2020/12/04 12:53:01;;;;;;;2.67;1.60;;;8.70;99.90;;;;;;4978217;28;20190;-79
2020/12/04 12:55:27;;;;;;;1.63;1.53;;;8.60;99.90;;;;;;5011338;28;20655;-79
2020/12/04 12:57:52;;;;;;;2.00;1.63;;;8.60;99.90;;;;;;4994280;28;20569;-79
2020/12/04 13:00:18;;;;;;;2.57;1.40;;;8.60;99.90;;;;;;4978398;28;20186;-79
2020/12/04 13:02:43;;;;;;;1.80;1.40;;;8.50;99.90;;;;;;4978572;28;20259;-79
2020/12/04 13:07:53;;;;;;;2.07;1.40;;;8.50;99.90;;;;;;4994102;28;20251;-79
2020/12/04 13:10:19;;;;;;;2.80;1.30;;;8.50;99.90;;;;;;4962923;28;20186;-78
2020/12/04 13:12:45;;;;;;;2.23;1.37;;;8.60;99.90;;;;;;4962059;28;20191;-79
2020/12/04 13:15:33;;;;;;;1.73;1.30;;;8.60;99.90;;;;;;4983676;28;20180;-82